createdAt,value
2019-06-26T00:01:50.616Z,64.50
2019-06-26T00:04:19.918Z,63.80
2019-06-26T00:06:49.139Z,64.50
2019-06-26T00:09:18.279Z,65.50
2019-06-26T00:11:47.542Z,64.80
2019-06-26T00:14:16.712Z,64.00
2019-06-26T00:16:45.932Z,64.20
2019-06-26T00:19:15.147Z,64.50
2019-06-26T00:21:44.296Z,65.40
2019-06-26T00:24:13.464Z,65.60
2019-06-26T00:26:42.607Z,65.40
2019-06-26T00:29:11.890Z,65.00
2019-06-26T00:31:41.095Z,65.00
2019-06-26T00:34:10.410Z,65.10
2019-06-26T00:36:39.604Z,65.40
2019-06-26T00:39:08.745Z,66.00
2019-06-26T00:41:37.959Z,66.50
2019-06-26T00:44:07.095Z,65.50
2019-06-26T00:46:36.301Z,66.90
2019-06-26T00:49:05.621Z,66.70
2019-06-26T00:51:34.763Z,67.00
2019-06-26T00:54:03.896Z,66.00
2019-06-26T00:56:33.042Z,66.20
2019-06-26T00:59:02.204Z,66.30
2019-06-26T01:01:31.420Z,66.90
2019-06-26T01:04:04.695Z,65.70
2019-06-26T01:06:45.778Z,66.40
2019-06-26T01:09:15.672Z,67.00
2019-06-26T01:11:44.856Z,67.90
2019-06-26T01:14:14.015Z,66.60
2019-06-26T01:16:43.189Z,65.60
2019-06-26T01:19:12.388Z,66.30
2019-06-26T01:21:41.526Z,67.40
2019-06-26T01:24:10.673Z,67.90
2019-06-26T01:26:39.869Z,67.40
2019-06-26T01:29:09.085Z,67.70
2019-06-26T01:31:38.305Z,66.70
2019-06-26T01:34:07.477Z,66.40
2019-06-26T01:36:36.647Z,68.10
2019-06-26T01:39:06.935Z,66.10
2019-06-26T01:41:36.290Z,67.00
2019-06-26T01:44:14.758Z,66.80
2019-06-26T01:46:36.838Z,66.60
2019-06-26T01:49:06.061Z,67.90
2019-06-26T01:51:35.230Z,69.30
2019-06-26T01:54:04.404Z,68.00
2019-06-26T01:56:33.555Z,68.60
2019-06-26T01:59:02.708Z,68.30
2019-06-26T02:01:32.023Z,70.30
2019-06-26T02:04:01.202Z,68.80
2019-06-26T02:06:30.367Z,68.60
2019-06-26T02:08:59.504Z,70.30
2019-06-26T02:11:28.748Z,70.00
2019-06-26T02:13:57.958Z,69.80
2019-06-26T02:16:27.110Z,68.70
2019-06-26T02:19:00.155Z,68.20
2019-06-26T02:21:29.505Z,69.00
2019-06-26T02:23:58.740Z,70.00
2019-06-26T02:26:27.956Z,70.40
2019-06-26T02:28:57.177Z,71.00
2019-06-26T02:31:26.396Z,72.80
2019-06-26T02:33:55.688Z,70.80
2019-06-26T02:36:24.985Z,72.70
2019-06-26T02:38:54.210Z,71.50
2019-06-26T02:41:23.362Z,70.90
2019-06-26T02:43:53.272Z,71.90
2019-06-26T02:46:22.632Z,73.30
2019-06-26T02:48:51.756Z,72.50
2019-06-26T02:51:21.196Z,72.60
2019-06-26T02:53:50.462Z,74.20
2019-06-26T02:56:19.714Z,73.60
2019-06-26T02:58:49.032Z,72.80
2019-06-26T03:01:18.178Z,72.80
2019-06-26T03:03:47.385Z,72.80
2019-06-26T03:06:16.604Z,73.70
2019-06-26T03:08:45.746Z,73.10
2019-06-26T03:11:15.055Z,73.20
2019-06-26T03:13:44.217Z,73.20
2019-06-26T03:16:13.775Z,72.90
2019-06-26T03:18:43.044Z,72.40
2019-06-26T03:21:12.290Z,73.00
2019-06-26T03:23:41.481Z,73.30
2019-06-26T03:26:10.624Z,73.60
2019-06-26T03:28:39.798Z,72.40
2019-06-26T03:31:09.087Z,72.10
2019-06-26T03:33:38.239Z,71.50
2019-06-26T03:36:07.478Z,73.20
2019-06-26T03:38:36.775Z,74.30
2019-06-26T03:41:06.041Z,73.80
2019-06-26T03:43:35.704Z,74.50
2019-06-26T03:46:05.753Z,73.80
2019-06-26T03:48:34.979Z,74.40
2019-06-26T03:51:04.364Z,74.30
2019-06-26T03:53:33.849Z,72.70
2019-06-26T03:56:03.058Z,73.00
2019-06-26T03:58:32.206Z,72.60
2019-06-26T04:01:01.413Z,72.90
2019-06-26T04:03:30.595Z,71.30
2019-06-26T04:05:59.794Z,74.20
2019-06-26T04:08:29.180Z,75.40
2019-06-26T04:11:00.224Z,73.50
2019-06-26T04:13:29.522Z,74.10
2019-06-26T04:15:58.779Z,74.00
2019-06-26T04:18:27.958Z,74.80
2019-06-26T04:20:57.126Z,72.90
2019-06-26T04:23:26.287Z,71.60
2019-06-26T04:25:55.453Z,73.70
2019-06-26T04:28:24.617Z,72.70
2019-06-26T04:30:53.822Z,72.70
2019-06-26T04:33:22.999Z,74.30
2019-06-26T04:35:52.210Z,72.80
2019-06-26T04:38:21.436Z,72.10
2019-06-26T04:40:50.652Z,74.00
2019-06-26T04:43:19.877Z,74.90
2019-06-26T04:45:58.180Z,74.10
2019-06-26T04:48:19.959Z,74.50
2019-06-26T04:50:49.230Z,73.30
2019-06-26T04:53:18.567Z,72.40
2019-06-26T04:55:47.893Z,72.60
2019-06-26T04:58:17.121Z,74.30
2019-06-26T05:00:46.414Z,73.10
2019-06-26T05:03:16.018Z,73.30
2019-06-26T05:05:45.280Z,72.90
2019-06-26T05:08:14.443Z,74.80
2019-06-26T05:10:43.587Z,73.60
2019-06-26T05:13:12.719Z,73.60
2019-06-26T05:15:41.967Z,72.90
2019-06-26T05:18:11.167Z,73.00
2019-06-26T05:20:40.395Z,72.50
2019-06-26T05:23:09.818Z,74.00
2019-06-26T05:25:39.116Z,74.20
2019-06-26T05:28:08.664Z,72.60
2019-06-26T05:30:38.155Z,72.20
2019-06-26T05:33:07.383Z,72.70
2019-06-26T05:35:36.613Z,73.60
2019-06-26T05:38:05.791Z,72.90
2019-06-26T05:40:35.080Z,73.50
2019-06-26T05:43:04.295Z,73.00
2019-06-26T05:45:33.458Z,72.10
2019-06-26T05:48:02.804Z,72.90
2019-06-26T05:50:32.103Z,73.00
2019-06-26T05:53:01.264Z,72.80
2019-06-26T05:55:30.579Z,72.70
2019-06-26T05:57:59.919Z,75.30
2019-06-26T06:00:29.135Z,73.70
2019-06-26T06:02:58.481Z,74.60
2019-06-26T06:05:27.705Z,73.90
2019-06-26T06:07:57.026Z,74.80
2019-06-26T06:10:26.238Z,77.20
2019-06-26T06:12:55.450Z,74.40
2019-06-26T06:15:24.756Z,72.90
2019-06-26T06:17:53.911Z,73.60
2019-06-26T06:20:30.768Z,73.80
2019-06-26T06:22:59.980Z,74.00
2019-06-26T06:25:29.142Z,72.80
2019-06-26T06:27:58.574Z,73.00
2019-06-26T06:30:27.821Z,73.60
2019-06-26T06:32:57.277Z,74.50
2019-06-26T06:35:26.432Z,73.00
2019-06-26T06:37:55.652Z,73.60
2019-06-26T06:40:25.415Z,75.00
2019-06-26T06:42:54.603Z,72.20
2019-06-26T06:45:24.079Z,73.90
2019-06-26T06:47:53.526Z,72.70
2019-06-26T06:50:22.750Z,73.10
2019-06-26T06:52:51.909Z,73.30
2019-06-26T06:55:21.106Z,72.90
2019-06-26T06:57:50.736Z,74.70
2019-06-26T07:00:20.862Z,73.50
2019-06-26T07:02:50.032Z,71.60
2019-06-26T07:05:19.299Z,71.70
2019-06-26T07:07:48.540Z,72.60
2019-06-26T07:10:18.493Z,72.70
2019-06-26T07:12:47.796Z,73.50
2019-06-26T07:15:17.717Z,72.70
2019-06-26T07:17:46.968Z,73.00
2019-06-26T07:20:16.891Z,72.10
2019-06-26T07:22:46.148Z,71.40
2019-06-26T07:25:15.763Z,71.80
2019-06-26T07:27:44.917Z,71.40
2019-06-26T07:30:14.967Z,71.20
2019-06-26T07:32:44.099Z,71.50
2019-06-26T07:35:13.315Z,70.10
2019-06-26T07:37:42.546Z,70.70
2019-06-26T07:40:11.983Z,71.10
2019-06-26T07:42:41.309Z,70.90
2019-06-26T07:45:11.059Z,70.60
2019-06-26T07:47:43.498Z,69.70
2019-06-26T07:50:11.592Z,71.00
2019-06-26T07:52:40.890Z,70.30
2019-06-26T07:55:12.436Z,70.20
2019-06-26T07:57:41.784Z,71.10
2019-06-26T08:00:11.772Z,71.60
2019-06-26T08:02:40.976Z,70.40
2019-06-26T08:05:10.666Z,71.20
2019-06-26T08:07:39.903Z,69.20
2019-06-26T08:10:09.246Z,70.10
2019-06-26T08:12:38.417Z,68.50
2019-06-26T08:15:08.057Z,68.90
2019-06-26T08:17:37.272Z,69.70
2019-06-26T08:20:07.069Z,69.50
2019-06-26T08:22:36.207Z,69.40
2019-06-26T08:25:06.102Z,68.80
2019-06-26T08:27:35.343Z,69.80
2019-06-26T08:30:05.524Z,68.60
2019-06-26T08:32:34.746Z,67.90
2019-06-26T08:35:04.460Z,68.50
2019-06-26T08:37:33.686Z,69.40
2019-06-26T08:40:02.852Z,67.40
2019-06-26T08:42:32.008Z,68.00
2019-06-26T08:45:01.345Z,67.30
2019-06-26T08:47:30.775Z,67.60
2019-06-26T08:50:00.122Z,68.30
2019-06-26T08:52:29.356Z,67.80
2019-06-26T08:54:58.503Z,66.70
2019-06-26T08:57:27.743Z,66.70
2019-06-26T08:59:56.901Z,66.20
2019-06-26T09:02:26.065Z,66.20
2019-06-26T09:04:55.272Z,66.40
2019-06-26T09:07:24.405Z,65.90
2019-06-26T09:09:53.848Z,65.90
2019-06-26T09:12:23.178Z,64.80
2019-06-26T09:14:52.362Z,65.50
2019-06-26T09:17:21.620Z,66.10
2019-06-26T09:19:50.865Z,64.70
2019-06-26T09:22:20.129Z,65.50
2019-06-26T09:24:49.340Z,64.40
2019-06-26T09:27:18.543Z,63.90
2019-06-26T09:29:47.689Z,65.20
2019-06-26T09:32:16.937Z,64.40
2019-06-26T09:34:46.185Z,64.10
2019-06-26T09:37:15.336Z,62.80
2019-06-26T09:39:44.530Z,63.30
2019-06-26T09:42:13.778Z,64.00
2019-06-26T09:44:43.024Z,64.70
2019-06-26T09:47:15.531Z,63.80
2019-06-26T09:49:43.185Z,62.70
2019-06-26T09:52:12.360Z,63.20
2019-06-26T09:54:41.663Z,61.90
2019-06-26T09:57:10.906Z,61.60
2019-06-26T09:59:40.179Z,62.20
2019-06-26T10:02:09.330Z,61.00
2019-06-26T10:04:38.638Z,61.60
2019-06-26T10:07:07.851Z,59.90
2019-06-26T10:09:37.088Z,60.40
2019-06-26T10:12:06.301Z,58.80
2019-06-26T10:14:47.410Z,58.50
2019-06-26T10:17:06.503Z,58.90
2019-06-26T10:19:35.642Z,58.90
2019-06-26T10:22:04.864Z,59.30
2019-06-26T10:24:34.166Z,59.80
2019-06-26T10:27:03.341Z,57.90
2019-06-26T10:29:32.609Z,57.90
2019-06-26T10:32:01.880Z,57.50
2019-06-26T10:34:31.189Z,56.50
2019-06-26T10:37:00.374Z,56.50
2019-06-26T10:39:29.697Z,56.30
2019-06-26T10:41:58.950Z,56.70
2019-06-26T10:44:28.977Z,55.30
2019-06-26T10:46:58.206Z,55.30
2019-06-26T10:49:28.034Z,56.00
2019-06-26T10:51:57.654Z,55.00
2019-06-26T10:54:27.472Z,55.40
2019-06-26T10:56:56.643Z,55.70
2019-06-26T10:59:25.907Z,55.10
2019-06-26T11:01:55.274Z,54.20
2019-06-26T11:04:24.613Z,53.40
2019-06-26T11:06:53.904Z,54.20
2019-06-26T11:09:23.140Z,54.10
2019-06-26T11:11:52.986Z,54.00
2019-06-26T11:14:22.143Z,52.20
2019-06-26T11:16:51.316Z,53.20
2019-06-26T11:19:20.496Z,53.10
2019-06-26T11:21:49.729Z,52.40
2019-06-26T11:24:18.877Z,51.60
2019-06-26T11:26:48.174Z,52.30
2019-06-26T11:29:17.415Z,52.90
2019-06-26T11:31:46.621Z,51.80
2019-06-26T11:34:15.928Z,51.40
2019-06-26T11:37:02.374Z,51.30
2019-06-26T11:39:16.109Z,50.90
2019-06-26T11:41:45.259Z,50.90
2019-06-26T11:44:14.502Z,51.00
2019-06-26T11:46:43.725Z,50.30
2019-06-26T11:49:13.046Z,51.00
2019-06-26T11:51:42.198Z,49.50
2019-06-26T11:54:11.511Z,50.20
2019-06-26T11:56:40.684Z,49.30
2019-06-26T11:59:09.940Z,50.10
2019-06-26T12:01:39.209Z,49.90
2019-06-26T12:04:08.404Z,49.60
2019-06-26T12:06:37.606Z,49.70
2019-06-26T12:09:09.468Z,50.00
2019-06-26T12:11:38.742Z,48.60
2019-06-26T12:14:08.044Z,48.30
2019-06-26T12:16:37.229Z,49.20
2019-06-26T12:19:06.442Z,48.70
2019-06-26T12:21:35.821Z,48.20
2019-06-26T12:24:05.281Z,48.10
2019-06-26T12:26:34.418Z,47.30
2019-06-26T12:29:03.698Z,47.50
2019-06-26T12:31:32.922Z,48.00
2019-06-26T12:34:02.538Z,47.40
2019-06-26T12:36:31.868Z,47.50
2019-06-26T12:39:01.074Z,48.00
2019-06-26T12:41:31.688Z,46.90
2019-06-26T12:44:00.863Z,47.60
2019-06-26T12:46:30.076Z,48.70
2019-06-26T12:48:59.377Z,48.00
2019-06-26T12:51:28.779Z,48.60
2019-06-26T12:53:58.639Z,48.00
2019-06-26T12:56:28.077Z,47.90
2019-06-26T12:58:59.884Z,47.80
2019-06-26T13:01:28.212Z,47.50
2019-06-26T13:03:57.459Z,47.40
2019-06-26T13:06:26.833Z,48.10
2019-06-26T13:08:56.013Z,47.90
2019-06-26T13:11:25.312Z,48.10
2019-06-26T13:14:02.645Z,47.70
2019-06-26T13:16:25.402Z,48.00
2019-06-26T13:18:54.593Z,47.70
2019-06-26T13:21:23.860Z,47.60
2019-06-26T13:23:53.385Z,48.30
2019-06-26T13:26:22.658Z,48.00
2019-06-26T13:28:51.873Z,47.90
2019-06-26T13:31:21.043Z,47.80
2019-06-26T13:33:50.289Z,48.00
2019-06-26T13:36:19.453Z,48.40
2019-06-26T13:38:48.653Z,48.20
2019-06-26T13:41:17.926Z,47.70
2019-06-26T13:43:47.182Z,48.80
2019-06-26T13:46:16.323Z,48.60
2019-06-26T13:48:45.482Z,47.40
2019-06-26T13:51:14.673Z,47.30
2019-06-26T13:53:43.868Z,46.80
2019-06-26T13:56:13.469Z,48.50
2019-06-26T13:58:42.615Z,47.90
2019-06-26T14:01:11.814Z,48.20
2019-06-26T14:03:41.003Z,47.50
2019-06-26T14:06:10.169Z,47.10
2019-06-26T14:08:39.350Z,47.50
2019-06-26T14:11:08.598Z,47.60
2019-06-26T14:13:41.538Z,47.00
2019-06-26T14:16:08.765Z,47.90
2019-06-26T14:18:37.953Z,46.90
2019-06-26T14:21:07.075Z,47.30
2019-06-26T14:23:37.927Z,47.70
2019-06-26T14:26:07.286Z,47.70
2019-06-26T14:28:36.450Z,47.30
2019-06-26T14:31:05.694Z,48.20
2019-06-26T14:33:34.829Z,45.90
2019-06-26T14:36:04.101Z,47.40
2019-06-26T14:38:33.298Z,46.70
2019-06-26T14:41:02.630Z,46.80
2019-06-26T14:43:31.872Z,47.20
2019-06-26T14:46:01.208Z,47.00
2019-06-26T14:48:30.410Z,46.80
2019-06-26T14:50:59.648Z,47.10
2019-06-26T14:53:28.913Z,47.60
2019-06-26T14:55:58.262Z,45.00
2019-06-26T14:58:27.445Z,47.30
2019-06-26T15:00:56.607Z,45.80
2019-06-26T15:03:25.756Z,48.20
2019-06-26T15:05:55.019Z,47.80
2019-06-26T15:08:24.236Z,47.40
2019-06-26T15:10:53.414Z,47.50
2019-06-26T15:13:23.150Z,46.90
2019-06-26T15:15:54.714Z,45.40
2019-06-26T15:18:23.296Z,47.00
2019-06-26T15:20:52.514Z,47.80
2019-06-26T15:23:21.741Z,46.60
2019-06-26T15:25:51.409Z,47.40
2019-06-26T15:28:20.625Z,47.80
2019-06-26T15:30:49.998Z,48.10
2019-06-26T15:33:19.230Z,47.10
2019-06-26T15:35:48.419Z,47.60
2019-06-26T15:38:17.702Z,47.40
2019-06-26T15:40:47.029Z,47.20
2019-06-26T15:43:16.278Z,47.80
2019-06-26T15:45:45.500Z,47.90
2019-06-26T15:48:14.697Z,47.80
2019-06-26T15:50:43.946Z,47.70
2019-06-26T15:53:13.276Z,48.20
2019-06-26T15:55:42.500Z,48.40
2019-06-26T15:58:11.695Z,48.30
2019-06-26T16:00:40.904Z,48.00
2019-06-26T16:03:10.046Z,48.40
2019-06-26T16:05:39.209Z,48.30
2019-06-26T16:08:08.383Z,48.40
2019-06-26T16:10:37.662Z,48.20
2019-06-26T16:13:07.001Z,48.30
2019-06-26T16:15:37.787Z,48.40
2019-06-26T16:18:15.928Z,49.40
2019-06-26T16:20:45.141Z,49.70
2019-06-26T16:23:14.364Z,50.90
2019-06-26T16:25:43.544Z,51.00
2019-06-26T16:28:12.775Z,50.80
2019-06-26T16:30:42.052Z,51.00
2019-06-26T16:33:11.362Z,50.90
2019-06-26T16:35:40.605Z,50.90
2019-06-26T16:38:09.790Z,50.90
2019-06-26T16:40:39.021Z,51.00
2019-06-26T16:43:08.177Z,51.00
2019-06-26T16:45:37.360Z,51.80
2019-06-26T16:48:06.525Z,51.40
2019-06-26T16:50:35.744Z,51.20
2019-06-26T16:53:04.943Z,51.60
2019-06-26T16:55:34.355Z,51.80
2019-06-26T16:58:03.577Z,51.20
2019-06-26T17:00:32.733Z,51.60
2019-06-26T17:03:02.025Z,51.50
2019-06-26T17:05:31.176Z,51.40
2019-06-26T17:08:00.312Z,50.70
2019-06-26T17:10:29.509Z,50.40
2019-06-26T17:12:59.048Z,51.00
2019-06-26T17:15:28.304Z,51.60
2019-06-26T17:17:57.521Z,51.60
2019-06-26T17:20:26.877Z,51.50
2019-06-26T17:23:05.516Z,51.70
2019-06-26T17:25:26.954Z,51.50
2019-06-26T17:27:56.174Z,51.40
2019-06-26T17:30:25.555Z,51.60
2019-06-26T17:32:54.893Z,51.80
2019-06-26T17:35:24.096Z,52.20
2019-06-26T17:37:53.382Z,52.20
2019-06-26T17:40:22.682Z,52.00
2019-06-26T17:42:51.839Z,52.30
2019-06-26T17:45:21.292Z,52.50
2019-06-26T17:47:50.502Z,52.10
2019-06-26T17:50:20.223Z,52.00
2019-06-26T17:52:49.608Z,51.80
2019-06-26T17:55:19.270Z,51.90
2019-06-26T17:57:48.489Z,52.70
2019-06-26T18:00:19.664Z,53.00
2019-06-26T18:02:48.908Z,53.30
2019-06-26T18:05:18.240Z,52.00
2019-06-26T18:07:47.787Z,52.90
2019-06-26T18:10:17.108Z,52.70
2019-06-26T18:12:46.295Z,52.70
2019-06-26T18:15:15.718Z,52.40
2019-06-26T18:17:45.033Z,53.10
2019-06-26T18:20:14.619Z,53.40
2019-06-26T18:22:43.755Z,52.70
2019-06-26T18:25:16.475Z,53.50
2019-06-26T18:27:44.317Z,52.70
2019-06-26T18:30:14.237Z,52.90
2019-06-26T18:32:43.462Z,52.80
2019-06-26T18:35:12.633Z,53.00
2019-06-26T18:37:42.150Z,53.00
2019-06-26T18:40:12.020Z,53.50
2019-06-26T18:42:41.181Z,53.70
2019-06-26T18:45:10.837Z,53.60
2019-06-26T18:47:39.967Z,53.50
2019-06-26T18:50:10.241Z,53.80
2019-06-26T18:52:39.560Z,53.90
2019-06-26T18:55:09.364Z,53.90
2019-06-26T18:57:38.728Z,53.80
2019-06-26T19:00:08.973Z,53.70
2019-06-26T19:02:38.190Z,53.90
2019-06-26T19:05:07.773Z,54.00
2019-06-26T19:07:37.040Z,54.30
2019-06-26T19:10:06.833Z,54.00
2019-06-26T19:12:35.979Z,54.30
2019-06-26T19:15:06.220Z,54.40
2019-06-26T19:17:35.365Z,54.50
2019-06-26T19:20:05.641Z,55.00
2019-06-26T19:22:34.945Z,54.60
2019-06-26T19:25:04.609Z,53.80
2019-06-26T19:27:33.786Z,54.40
2019-06-26T19:30:03.346Z,54.50
2019-06-26T19:32:53.950Z,54.30
2019-06-26T19:35:23.102Z,54.10
2019-06-26T19:37:52.535Z,54.20
2019-06-26T19:40:24.097Z,54.30
2019-06-26T19:42:52.644Z,54.60
2019-06-26T19:45:24.243Z,54.40
2019-06-26T19:47:53.543Z,54.60
2019-06-26T19:50:23.734Z,55.00
2019-06-26T19:52:55.886Z,54.80
2019-06-26T19:55:25.104Z,54.60
2019-06-26T19:57:54.340Z,56.30
2019-06-26T20:00:23.597Z,55.60
2019-06-26T20:02:52.832Z,55.30
2019-06-26T20:05:22.060Z,55.60
2019-06-26T20:07:51.312Z,56.20
2019-06-26T20:10:21.014Z,55.40
2019-06-26T20:12:51.478Z,55.70
2019-06-26T20:15:20.664Z,56.40
2019-06-26T20:17:49.830Z,56.80
2019-06-26T20:20:19.272Z,56.30
2019-06-26T20:22:48.480Z,56.40
2019-06-26T20:25:18.214Z,55.80
2019-06-26T20:27:47.424Z,56.70
2019-06-26T20:30:16.651Z,57.00
2019-06-26T20:32:45.813Z,57.60
2019-06-26T20:35:15.228Z,57.70
2019-06-26T20:37:45.850Z,58.20
2019-06-26T20:40:15.324Z,58.30
2019-06-26T20:42:44.497Z,58.40
2019-06-26T20:45:13.934Z,58.90
2019-06-26T20:47:44.283Z,59.10
2019-06-26T20:50:13.486Z,59.10
2019-06-26T20:52:42.801Z,58.70
2019-06-26T20:55:11.973Z,58.30
2019-06-26T20:57:41.164Z,58.70
2019-06-26T21:00:10.891Z,58.70
2019-06-26T21:02:40.243Z,59.90
2019-06-26T21:05:10.018Z,58.80
2019-06-26T21:07:39.191Z,59.90
2019-06-26T21:10:08.989Z,60.50
2019-06-26T21:12:39.623Z,61.10
2019-06-26T21:15:09.441Z,59.70
2019-06-26T21:17:38.692Z,61.30
2019-06-26T21:20:11.242Z,60.40
2019-06-26T21:22:40.533Z,60.00
2019-06-26T21:25:18.158Z,61.30
2019-06-26T21:27:40.891Z,61.20
2019-06-26T21:30:10.806Z,61.10
2019-06-26T21:32:40.191Z,62.50
2019-06-26T21:35:09.374Z,61.30
2019-06-26T21:37:38.658Z,60.80
2019-06-26T21:40:08.628Z,60.70
2019-06-26T21:42:37.783Z,61.90
2019-06-26T21:45:07.836Z,61.60
2019-06-26T21:47:37.116Z,63.00
2019-06-26T21:50:07.062Z,62.20
2019-06-26T21:52:36.217Z,64.00
2019-06-26T21:55:05.566Z,63.50
2019-06-26T21:57:34.727Z,63.80
2019-06-26T22:00:08.378Z,62.90
2019-06-26T22:02:39.026Z,64.40
2019-06-26T22:05:08.651Z,64.00
2019-06-26T22:07:37.999Z,63.80
2019-06-26T22:10:07.772Z,63.20
2019-06-26T22:12:36.895Z,64.60
2019-06-26T22:15:11.780Z,63.10
2019-06-26T22:17:41.010Z,64.30
2019-06-26T22:20:12.735Z,64.20
2019-06-26T22:22:42.051Z,64.00
2019-06-26T22:25:12.590Z,64.20
2019-06-26T22:27:41.883Z,64.30
2019-06-26T22:30:15.261Z,64.90
2019-06-26T22:32:44.592Z,63.80
2019-06-26T22:35:14.266Z,64.50
2019-06-26T22:37:43.500Z,64.60
2019-06-26T22:40:12.899Z,64.20
2019-06-26T22:42:44.282Z,63.50
2019-06-26T22:45:15.011Z,65.00
2019-06-26T22:47:44.167Z,65.70
2019-06-26T22:50:13.713Z,64.60
2019-06-26T22:52:43.011Z,64.40
2019-06-26T22:55:14.795Z,64.80
2019-06-26T22:57:44.281Z,64.70
2019-06-26T23:00:17.793Z,63.80
2019-06-26T23:02:47.199Z,64.40
2019-06-26T23:05:16.392Z,65.60
2019-06-26T23:07:45.646Z,65.00
2019-06-26T23:10:15.476Z,64.90
2019-06-26T23:12:44.639Z,66.60
2019-06-26T23:15:17.465Z,65.50
2019-06-26T23:17:46.590Z,65.10
2019-06-26T23:20:16.190Z,65.20
2019-06-26T23:22:45.388Z,66.00
2019-06-26T23:25:18.103Z,65.40
2019-06-26T23:27:47.380Z,67.30
2019-06-26T23:30:18.513Z,67.10
2019-06-26T23:32:47.872Z,67.60
2019-06-26T23:35:17.292Z,66.10
2019-06-26T23:37:46.502Z,67.10
2019-06-26T23:40:16.957Z,66.60
2019-06-26T23:42:46.175Z,67.70
2019-06-26T23:45:15.525Z,67.50
2019-06-26T23:47:44.672Z,68.00
2019-06-26T23:50:14.858Z,67.60
2019-06-26T23:52:44.018Z,67.50
2019-06-26T23:55:15.155Z,66.30
2019-06-26T23:57:58.650Z,67.60
